WetterOnline ( http://www.wetteronline.de )

Wetter aktuell München

Aktuelles Wetter: München/Stadt (535m)

6-stündlich | Neueste Meldungen
Ortszeit Temperatur Wetter
Do, 21.02. 7:00 4.2° C leicht bewölkt
Do, 21.02. 1:00 5.9° C bedeckt
Mi, 20.02. 19:00 7.5° C bedeckt
Mi, 20.02. 13:00 9.0° C bedeckt
Mi, 20.02. 7:00 5.5° C bedeckt
Mi, 20.02. 1:00 6.2° C bedeckt
Di, 19.02. 19:00 9.5° C wolkig
Di, 19.02. 13:00 12.1° C bewölkt
Ortszeit Temperatur Wetter
Do, 21.02. 10:00 7.7° C leicht bewölkt
Do, 21.02. 9:50 7.7° C leicht bewölkt
Do, 21.02. 9:40 7.3° C leicht bewölkt
Do, 21.02. 9:30 6.8° C fast wolkenlos
Do, 21.02. 9:20 6.8° C wolkenlos
Do, 21.02. 9:10 6.4° C wolkenlos
Do, 21.02. 9:00 5.7° C leicht bewölkt
Do, 21.02. 8:30 5.0° C bedeckt
Do, 21.02. 8:00 4.7° C bedeckt
Do, 21.02. 7:30 4.3° C bewölkt
Do, 21.02. 7:00 4.2° C leicht bewölkt
Ortszeit Relative Feuchte Sichtweite
Do, 21.02. 7:00 80% 24 km
Do, 21.02. 1:00 77% 22 km
Mi, 20.02. 19:00 73% 28 km
Mi, 20.02. 13:00 64% 22 km
Mi, 20.02. 7:00 83% 23 km
Mi, 20.02. 1:00 80% 26 km
Di, 19.02. 19:00 59% 45 km
Di, 19.02. 13:00 43% 45 km
Ortszeit Relative Feuchte Sichtweite
Do, 21.02. 10:00 65% 22 km
Do, 21.02. 9:50 65% -
Do, 21.02. 9:40 65% -
Do, 21.02. 9:30 67% 27 km
Do, 21.02. 9:20 67% -
Do, 21.02. 9:10 69% -
Do, 21.02. 9:00 72% 26 km
Do, 21.02. 8:30 75% 23 km
Do, 21.02. 8:00 76% 26 km
Do, 21.02. 7:30 78% 24 km
Do, 21.02. 7:00 80% 24 km
Ortszeit Niederschlagsmenge Niederschlagsart
Do, 21.02. 7:00 0.0 l/m2 in 12 Std. -
Do, 21.02. 1:00 0.0 l/m2 in 6 Std. -
Mi, 20.02. 19:00 0.0 l/m2 in 12 Std. -
Mi, 20.02. 13:00 0.0 l/m2 in 6 Std. -
Mi, 20.02. 7:00 0.1 l/m2 in 12 Std. Regen
Mi, 20.02. 1:00 0.1 l/m2 in 6 Std. Regen
Di, 19.02. 19:00 0.0 l/m2 in 12 Std. -
Di, 19.02. 13:00 0.0 l/m2 in 6 Std. -
Ortszeit Niederschlagsmenge Niederschlagsart
Do, 21.02. 10:00 0.0 l/m2 in 1 Std. -
Do, 21.02. 9:50 keine Meldung -
Do, 21.02. 9:40 keine Meldung -
Do, 21.02. 9:30 0.0 l/m2 in 1 Std. -
Do, 21.02. 9:20 keine Meldung -
Do, 21.02. 9:10 keine Meldung -
Do, 21.02. 9:00 0.0 l/m2 in 1 Std. -
Do, 21.02. 8:30 0.0 l/m2 in 1 Std. -
Do, 21.02. 8:00 0.0 l/m2 in 1 Std. -
Do, 21.02. 7:30 0.0 l/m2 in 1 Std. -
Do, 21.02. 7:00 0.0 l/m2 in 1 Std. -
Ortszeit Stärke Spitze Richtung
km/h Bft. km/h Grad Sektor
Do, 21.02. 7:00 7 2 14 200° S
Do, 21.02. 1:00 7 2 14 200° S
Mi, 20.02. 19:00 4 1 22 10° N
Mi, 20.02. 13:00 9 2 20 300° NW
Mi, 20.02. 7:00 2 1 9 20° N
Mi, 20.02. 1:00 4 1 22 10° N
Di, 19.02. 19:00 9 2 35 260° W
Di, 19.02. 13:00 17 3 37 290° W
Ortszeit Stärke Spitze Richtung
km/h Bft. km/h Grad Sektor
Do, 21.02. 10:00 11 2 22 240° SW
Do, 21.02. 9:50 11 2 - 240° SW
Do, 21.02. 9:40 13 3 - 240° SW
Do, 21.02. 9:30 9 2 17 240° SW
Do, 21.02. 9:20 9 2 - 240° SW
Do, 21.02. 9:10 7 2 - 230° SW
Do, 21.02. 9:00 9 2 13 240° SW
Do, 21.02. 8:30 7 2 11 230° SW
Do, 21.02. 8:00 7 2 14 220° SW
Do, 21.02. 7:30 9 2 13 200° S
Do, 21.02. 7:00 7 2 11 200° S
Ortszeit Untergrenze Bedeckung Gattung
total tief tief mittel hoch
Do, 21.02. 7:00 1020 m 4/8 4/8 - - -
Do, 21.02. 1:00 3000 m 8/8 8/8 - - -
Mi, 20.02. 19:00 3300 m 8/8 8/8 - - -
Mi, 20.02. 13:00 750 m 8/8 8/8 - - -
Mi, 20.02. 7:00 510 m 8/8 8/8 - - -
Mi, 20.02. 1:00 660 m 8/8 8/8 - - -
Di, 19.02. 19:00 1800 m 7/8 1/8 - - -
Di, 19.02. 13:00 1500 m 7/8 7/8 - - -
Ortszeit Bedeckungsgrad in Achtel und Wolkenuntergrenze
Do, 21.02. 10:00 4(2400m)
Do, 21.02. 9:50 4(2400m)
Do, 21.02. 9:40 2(2400m)
Do, 21.02. 9:30 2(2400m)
Do, 21.02. 9:20 keine Wolken
Do, 21.02. 9:10 keine Wolken
Do, 21.02. 9:00 2(2400m)
Do, 21.02. 8:30 8(2400m)
Do, 21.02. 8:00 8(2400m)
Do, 21.02. 7:30 7(2400m)
Do, 21.02. 7:00 1(1020m) 4(2400m)
Ortszeit Luftdruck NN (hPa) Tendenz (hPa in 3 Std.)
Do, 21.02. 7:00 1029 + 0,3
Do, 21.02. 1:00 1028 + 0,2
Mi, 20.02. 19:00 1026 + 0,7
Mi, 20.02. 13:00 1025 + 0,6
Mi, 20.02. 7:00 1025 + 0,6
Mi, 20.02. 1:00 1024 + 0,5
Di, 19.02. 19:00 1021 + 0,2
Di, 19.02. 13:00 1021 - 0,2
Ortszeit Luftdruck NN (hPa) Tendenz (hPa in 3 Std.)
Do, 21.02. 10:00 1030 + 1,0
Do, 21.02. 9:50 1030 keine Meldung
Do, 21.02. 9:40 1030 keine Meldung
Do, 21.02. 9:30 1030 + 1,1
Do, 21.02. 9:20 1030 keine Meldung
Do, 21.02. 9:10 1030 keine Meldung
Do, 21.02. 9:00 1030 + 1,2
Do, 21.02. 8:30 1030 + 1,0
Do, 21.02. 8:00 1030 + 0,8
Do, 21.02. 7:30 1030 + 0,5
Do, 21.02. 7:00 1029 + 0,3
Ortszeit Schneehöhe (cm)
Do, 21.02. 7:00 0
Do, 21.02. 1:00 0
Mi, 20.02. 19:00 0
Mi, 20.02. 13:00 0
Mi, 20.02. 7:00 0
Mi, 20.02. 1:00 0
Di, 19.02. 19:00 0
Di, 19.02. 13:00 0
Ortszeit Schneehöhe (cm)
Do, 21.02. 10:00 0
Do, 21.02. 9:50 0
Do, 21.02. 9:40 0
Do, 21.02. 9:30 0
Do, 21.02. 9:20 0
Do, 21.02. 9:10 0
Do, 21.02. 9:00 0
Do, 21.02. 8:30 0
Do, 21.02. 8:00 0
Do, 21.02. 7:30 0
Do, 21.02. 7:00 0
Link zu dieser Seite / Seite empfehlen

Das Wetter in ...